<?xml version="1.0" encoding="UTF-8" standalone="no" ?>
<gpx xmlns="http://www.topografix.com/GPX/1/1" xmlns:xsi="http://www.w3.org/2001/XMLSchema-instance" xsi:schemaLocation="http://www.topografix.com/GPX/1/1 http://www.topografix.com/GPX/1/1/gpx.xsd" version="1.1" creator="VisuGPX - https://www.visugpx.com">
  <metadata>
    <name>MenilHubert_16.2km</name>
    <desc><![CDATA[gnerando idor:8146041]]></desc>
  </metadata>
  <trk>
    <name><![CDATA[MenilHubert_16.2km-8146041]]></name>
    <extensions>
      <line xmlns="http://www.topografix.com/GPX/gpx_style/0/2">
        <color>0000FF</color>
        <width>4</width>
      </line>
    </extensions>
    <trkseg>
      <trkpt lat="48.81374" lon="0.22544">
        <ele>207</ele>
        <time>2023-11-05T13:17:46Z</time>
      </trkpt>
      <trkpt lat="48.81412" lon="0.22861">
        <ele>228</ele>
        <time>2023-11-05T13:22:29Z</time>
      </trkpt>
      <trkpt lat="48.81523" lon="0.23106">
        <ele>244</ele>
        <time>2023-11-05T13:26:50Z</time>
      </trkpt>
      <trkpt lat="48.81593" lon="0.23415">
        <ele>265</ele>
        <time>2023-11-05T13:31:38Z</time>
      </trkpt>
      <trkpt lat="48.81438" lon="0.23535">
        <ele>265</ele>
        <time>2023-11-05T13:35:30Z</time>
      </trkpt>
      <trkpt lat="48.81379" lon="0.2375">
        <ele>276</ele>
        <time>2023-11-05T13:38:54Z</time>
      </trkpt>
      <trkpt lat="48.81288" lon="0.23917">
        <ele>275</ele>
        <time>2023-11-05T13:42:05Z</time>
      </trkpt>
      <trkpt lat="48.81164" lon="0.2396">
        <ele>273</ele>
        <time>2023-11-05T13:44:55Z</time>
      </trkpt>
      <trkpt lat="48.81113" lon="0.23866">
        <ele>272</ele>
        <time>2023-11-05T13:46:42Z</time>
      </trkpt>
      <trkpt lat="48.81048" lon="0.23835">
        <ele>272</ele>
        <time>2023-11-05T13:48:13Z</time>
      </trkpt>
      <trkpt lat="48.80941" lon="0.23642">
        <ele>262</ele>
        <time>2023-11-05T13:51:54Z</time>
      </trkpt>
      <trkpt lat="48.80825" lon="0.23608">
        <ele>247</ele>
        <time>2023-11-05T13:54:32Z</time>
      </trkpt>
      <trkpt lat="48.80805" lon="0.23724">
        <ele>241</ele>
        <time>2023-11-05T13:56:17Z</time>
      </trkpt>
      <trkpt lat="48.80689" lon="0.23711">
        <ele>223</ele>
        <time>2023-11-05T13:58:53Z</time>
      </trkpt>
      <trkpt lat="48.80652" lon="0.23651">
        <ele>219</ele>
        <time>2023-11-05T14:00:05Z</time>
      </trkpt>
      <trkpt lat="48.8057" lon="0.23702">
        <ele>219</ele>
        <time>2023-11-05T14:02:03Z</time>
      </trkpt>
      <trkpt lat="48.80562" lon="0.23818">
        <ele>229</ele>
        <time>2023-11-05T14:03:46Z</time>
      </trkpt>
      <trkpt lat="48.80299" lon="0.24192">
        <ele>239</ele>
        <time>2023-11-05T14:11:46Z</time>
      </trkpt>
      <trkpt lat="48.80237" lon="0.24235">
        <ele>235</ele>
        <time>2023-11-05T14:13:17Z</time>
      </trkpt>
      <trkpt lat="48.80011" lon="0.24574">
        <ele>224</ele>
        <time>2023-11-05T14:20:21Z</time>
      </trkpt>
      <trkpt lat="48.79898" lon="0.24484">
        <ele>229</ele>
        <time>2023-11-05T14:23:12Z</time>
      </trkpt>
      <trkpt lat="48.79824" lon="0.24505">
        <ele>236</ele>
        <time>2023-11-05T14:24:52Z</time>
      </trkpt>
      <trkpt lat="48.79821" lon="0.24303">
        <ele>246</ele>
        <time>2023-11-05T14:27:50Z</time>
      </trkpt>
      <trkpt lat="48.79765" lon="0.24029">
        <ele>241</ele>
        <time>2023-11-05T14:32:02Z</time>
      </trkpt>
      <trkpt lat="48.79765" lon="0.2384">
        <ele>224</ele>
        <time>2023-11-05T14:34:48Z</time>
      </trkpt>
      <trkpt lat="48.79731" lon="0.23724">
        <ele>225</ele>
        <time>2023-11-05T14:36:40Z</time>
      </trkpt>
      <trkpt lat="48.79734" lon="0.23505">
        <ele>248</ele>
        <time>2023-11-05T14:39:52Z</time>
      </trkpt>
      <trkpt lat="48.79691" lon="0.23252">
        <ele>255</ele>
        <time>2023-11-05T14:43:42Z</time>
      </trkpt>
      <trkpt lat="48.7966" lon="0.23054">
        <ele>252</ele>
        <time>2023-11-05T14:46:41Z</time>
      </trkpt>
      <trkpt lat="48.79632" lon="0.22913">
        <ele>239</ele>
        <time>2023-11-05T14:48:50Z</time>
      </trkpt>
      <trkpt lat="48.79632" lon="0.22793">
        <ele>230</ele>
        <time>2023-11-05T14:50:36Z</time>
      </trkpt>
      <trkpt lat="48.79587" lon="0.22698">
        <ele>241</ele>
        <time>2023-11-05T14:52:19Z</time>
      </trkpt>
      <trkpt lat="48.79657" lon="0.22621">
        <ele>243</ele>
        <time>2023-11-05T14:54:14Z</time>
      </trkpt>
      <trkpt lat="48.79674" lon="0.22479">
        <ele>257</ele>
        <time>2023-11-05T14:56:21Z</time>
      </trkpt>
      <trkpt lat="48.79821" lon="0.22248">
        <ele>252</ele>
        <time>2023-11-05T15:01:03Z</time>
      </trkpt>
      <trkpt lat="48.79844" lon="0.22132">
        <ele>251</ele>
        <time>2023-11-05T15:02:50Z</time>
      </trkpt>
      <trkpt lat="48.79824" lon="0.21917">
        <ele>254</ele>
        <time>2023-11-05T15:06:01Z</time>
      </trkpt>
      <trkpt lat="48.80061" lon="0.2175">
        <ele>241</ele>
        <time>2023-11-05T15:11:49Z</time>
      </trkpt>
      <trkpt lat="48.80175" lon="0.21728">
        <ele>237</ele>
        <time>2023-11-05T15:14:23Z</time>
      </trkpt>
      <trkpt lat="48.8031" lon="0.21621">
        <ele>233</ele>
        <time>2023-11-05T15:17:46Z</time>
      </trkpt>
      <trkpt lat="48.8042" lon="0.21316">
        <ele>214</ele>
        <time>2023-11-05T15:22:51Z</time>
      </trkpt>
      <trkpt lat="48.80567" lon="0.21376">
        <ele>210</ele>
        <time>2023-11-05T15:26:15Z</time>
      </trkpt>
      <trkpt lat="48.80635" lon="0.21359">
        <ele>215</ele>
        <time>2023-11-05T15:27:47Z</time>
      </trkpt>
      <trkpt lat="48.80717" lon="0.21441">
        <ele>208</ele>
        <time>2023-11-05T15:29:58Z</time>
      </trkpt>
      <trkpt lat="48.80859" lon="0.21437">
        <ele>205</ele>
        <time>2023-11-05T15:33:07Z</time>
      </trkpt>
      <trkpt lat="48.80989" lon="0.21342">
        <ele>204</ele>
        <time>2023-11-05T15:36:20Z</time>
      </trkpt>
      <trkpt lat="48.81076" lon="0.21454">
        <ele>199</ele>
        <time>2023-11-05T15:38:52Z</time>
      </trkpt>
      <trkpt lat="48.81136" lon="0.21591">
        <ele>191</ele>
        <time>2023-11-05T15:41:16Z</time>
      </trkpt>
      <trkpt lat="48.81415" lon="0.21441">
        <ele>176</ele>
        <time>2023-11-05T15:47:51Z</time>
      </trkpt>
      <trkpt lat="48.81412" lon="0.21621">
        <ele>177</ele>
        <time>2023-11-05T15:50:30Z</time>
      </trkpt>
      <trkpt lat="48.81353" lon="0.21973">
        <ele>192</ele>
        <time>2023-11-05T15:55:49Z</time>
      </trkpt>
      <trkpt lat="48.81345" lon="0.22192">
        <ele>200</ele>
        <time>2023-11-05T15:59:02Z</time>
      </trkpt>
      <trkpt lat="48.8139" lon="0.22346">
        <ele>204</ele>
        <time>2023-11-05T16:01:30Z</time>
      </trkpt>
      <trkpt lat="48.81441" lon="0.22157">
        <ele>216</ele>
        <time>2023-11-05T16:04:29Z</time>
      </trkpt>
      <trkpt lat="48.8163" lon="0.22003">
        <ele>237</ele>
        <time>2023-11-05T16:09:15Z</time>
      </trkpt>
      <trkpt lat="48.81709" lon="0.21793">
        <ele>237</ele>
        <time>2023-11-05T16:12:48Z</time>
      </trkpt>
      <trkpt lat="48.8178" lon="0.2157">
        <ele>239</ele>
        <time>2023-11-05T16:16:25Z</time>
      </trkpt>
      <trkpt lat="48.81992" lon="0.21462">
        <ele>242</ele>
        <time>2023-11-05T16:21:24Z</time>
      </trkpt>
      <trkpt lat="48.82444" lon="0.21248">
        <ele>250</ele>
        <time>2023-11-05T16:31:56Z</time>
      </trkpt>
      <trkpt lat="48.82763" lon="0.21162">
        <ele>249</ele>
        <time>2023-11-05T16:39:08Z</time>
      </trkpt>
      <trkpt lat="48.82882" lon="0.21153">
        <ele>249</ele>
        <time>2023-11-05T16:41:47Z</time>
      </trkpt>
      <trkpt lat="48.83178" lon="0.21033">
        <ele>246</ele>
        <time>2023-11-05T16:48:36Z</time>
      </trkpt>
      <trkpt lat="48.83385" lon="0.21029">
        <ele>245</ele>
        <time>2023-11-05T16:53:12Z</time>
      </trkpt>
      <trkpt lat="48.83602" lon="0.20977">
        <ele>244</ele>
        <time>2023-11-05T16:58:05Z</time>
      </trkpt>
      <trkpt lat="48.83817" lon="0.21158">
        <ele>245</ele>
        <time>2023-11-05T17:03:33Z</time>
      </trkpt>
      <trkpt lat="48.83941" lon="0.21595">
        <ele>246</ele>
        <time>2023-11-05T17:10:31Z</time>
      </trkpt>
      <trkpt lat="48.83851" lon="0.22016">
        <ele>213</ele>
        <time>2023-11-05T17:17:00Z</time>
      </trkpt>
      <trkpt lat="48.8382" lon="0.22153">
        <ele>198</ele>
        <time>2023-11-05T17:19:07Z</time>
      </trkpt>
      <trkpt lat="48.83856" lon="0.22445">
        <ele>174</ele>
        <time>2023-11-05T17:23:28Z</time>
      </trkpt>
      <trkpt lat="48.83887" lon="0.22514">
        <ele>170</ele>
        <time>2023-11-05T17:24:42Z</time>
      </trkpt>
      <trkpt lat="48.83822" lon="0.22647">
        <ele>175</ele>
        <time>2023-11-05T17:27:07Z</time>
      </trkpt>
      <trkpt lat="48.83594" lon="0.22505">
        <ele>177</ele>
        <time>2023-11-05T17:32:36Z</time>
      </trkpt>
      <trkpt lat="48.83478" lon="0.22565">
        <ele>180</ele>
        <time>2023-11-05T17:35:19Z</time>
      </trkpt>
      <trkpt lat="48.83291" lon="0.22878">
        <ele>199</ele>
        <time>2023-11-05T17:41:31Z</time>
      </trkpt>
      <trkpt lat="48.83266" lon="0.22677">
        <ele>201</ele>
        <time>2023-11-05T17:44:30Z</time>
      </trkpt>
      <trkpt lat="48.83226" lon="0.22642">
        <ele>203</ele>
        <time>2023-11-05T17:45:32Z</time>
      </trkpt>
      <trkpt lat="48.83215" lon="0.22703">
        <ele>206</ele>
        <time>2023-11-05T17:46:28Z</time>
      </trkpt>
      <trkpt lat="48.83128" lon="0.22475">
        <ele>203</ele>
        <time>2023-11-05T17:50:19Z</time>
      </trkpt>
      <trkpt lat="48.82986" lon="0.22282">
        <ele>196</ele>
        <time>2023-11-05T17:54:33Z</time>
      </trkpt>
      <trkpt lat="48.82896" lon="0.22166">
        <ele>192</ele>
        <time>2023-11-05T17:57:11Z</time>
      </trkpt>
      <trkpt lat="48.82718" lon="0.22218">
        <ele>200</ele>
        <time>2023-11-05T18:01:13Z</time>
      </trkpt>
      <trkpt lat="48.82495" lon="0.22286">
        <ele>209</ele>
        <time>2023-11-05T18:06:16Z</time>
      </trkpt>
      <trkpt lat="48.82359" lon="0.22218">
        <ele>225</ele>
        <time>2023-11-05T18:09:27Z</time>
      </trkpt>
      <trkpt lat="48.82207" lon="0.22316">
        <ele>231</ele>
        <time>2023-11-05T18:13:08Z</time>
      </trkpt>
      <trkpt lat="48.82093" lon="0.22445">
        <ele>244</ele>
        <time>2023-11-05T18:16:17Z</time>
      </trkpt>
      <trkpt lat="48.81966" lon="0.22432">
        <ele>246</ele>
        <time>2023-11-05T18:19:07Z</time>
      </trkpt>
      <trkpt lat="48.81995" lon="0.22359">
        <ele>245</ele>
        <time>2023-11-05T18:20:22Z</time>
      </trkpt>
      <trkpt lat="48.81619" lon="0.21969">
        <ele>234</ele>
        <time>2023-11-05T18:30:30Z</time>
      </trkpt>
      <trkpt lat="48.81463" lon="0.22166">
        <ele>220</ele>
        <time>2023-11-05T18:35:01Z</time>
      </trkpt>
      <trkpt lat="48.8139" lon="0.22291">
        <ele>206</ele>
        <time>2023-11-05T18:37:27Z</time>
      </trkpt>
      <trkpt lat="48.81376" lon="0.22539">
        <ele>206</ele>
        <time>2023-11-05T18:41:06Z</time>
      </trkpt>
    </trkseg>
  </trk>
</gpx>